1XS0 weather

CLOSED Double U Ranch Airport
Spring Branch, Texas, United States

Public forecast

Using degrees Fahrenheit for public forecast. Weather courtesy of forecast.io.

Closest aviation weather report (METAR) to Double U Ranch Airport

Closest report is Boerne Stage Field, 16.3 nm (30.2 km) SW. Retrieved 2020/04/09 21:35 UTC (48 minutes ago):

K5C1 092135Z AUTO 05009G14KT 10SM CLR 25/18 A2987 RMK AO1

Closest aviation forecast (TAF) to Double U Ranch Airport

Closest forecast is San Antonio International Airport, 23.3 nm (43.2 km) S. Retrieved 2020/04/09 18:33 UTC (4 hours ago):

TAF KSAT 091731Z 0918/1024 24005KT P6SM BKN190 OVC250 FM092100 17008KT P6SM SCT040 OVC090 FM092200 35008KT P6SM -TSRA OVC040CB TEMPO 0922/1002 VRB30KT 2SM +TSRA BR OVC025CB FM100200 01010KT P6SM -SHRA VCTS OVC070CB FM100400 01006KT P6SM VCSH BKN040 FM101000 01010KT P6SM OVC014